Thunder radar more information blitzortung!


Radar de pluja more information rain snow radar


Visita la nostra xarxa de llocs de meteo:

Template documentation
and downloads

And another site



No particular awareness of the weather is required.    There are no Weather-warnings

Pagina Historial Weather Underground text

Diari Resum Novembre 30, 2017 Unitats:  Imperial    Mètric   Tant
« Previous Dia
SegĂźent Dia »
Diari Setmana Mensual Anual Personalitzada
  Maxima: Minima: Media:
Temperatura: TemperatureC °F 0.6 °F 5.3 °F
Punt de rosada: DewpointC °F -10.0 °F -4.5 °F
Humitat: Humidity % 32 % 51 %
Wind Speed: WindSpeedKMH mph 0.0 mph 3.2 mph
RĂ fegues de vent: WindSpeedGustKMH mph - -
Vent:- - SSW
Pression baro: PressurehPa in 1008.0 in -
Precipitacions: 0.0 in    
Historical Graphs
 
 
Dades de taula per Novembre 30, 2017
Temps Temperatura Punt de rosada Pression baro Vent Wind Speed RĂ fegues de vent Humitat Rainfall Rate (Hourly)
TemperatureC °F DewpointC °F PressurehPa in Calm     Humidity % HourlyPrecipMM in
00:05 3.1 °F -2.2 °F 1008.0 in SW 4.7 mph 4.7 mph 68 % 0.0 in
00:20 2.9 °F -2.4 °F 1008.0 in SW 1.6 mph 3.2 mph 68 % 0.0 in
00:25 2.9 °F -2.4 °F 1008.0 in West 1.6 mph   68 % 0.0 in
00:30 2.9 °F -2.2 °F 1008.0 in North 1.6 mph 3.2 mph 69 % 0.0 in
00:35 2.9 °F -2.2 °F 1008.0 in NE 1.6 mph 3.2 mph 69 % 0.0 in
00:40 2.8 °F -2.1 °F 1008.0 in NE 3.2 mph 3.2 mph 70 % 0.0 in
00:50 2.6 °F -2.3 °F 1009.0 in North 1.6 mph 3.2 mph 70 % 0.0 in
00:55 2.6 °F -2.3 °F 1009.0 in NNE 1.6 mph   70 % 0.0 in
01:00 2.6 °F -2.3 °F 1009.0 in Calm   1.6 mph 70 % 0.0 in
01:05 2.6 °F -2.3 °F 1009.0 in Calm     70 % 0.0 in
01:10 2.5 °F -2.4 °F 1009.0 in South 1.6 mph 3.2 mph 70 % 0.0 in
01:20 2.5 °F -2.4 °F 1009.0 in Calm     70 % 0.0 in
01:25 2.5 °F -2.4 °F 1009.0 in Calm     70 % 0.0 in
01:45 2.8 °F -2.1 °F 1010.0 in West 1.6 mph 3.2 mph 70 % 0.0 in
01:50 2.6 °F -2.5 °F 1010.0 in WSW 3.2 mph 3.2 mph 69 % 0.0 in
01:55 2.6 °F -2.3 °F 1010.0 in Calm   3.2 mph 70 % 0.0 in
02:00 2.8 °F -2.1 °F 1010.0 in Calm   3.2 mph 70 % 0.0 in
02:05 3.3 °F -1.8 °F 1010.0 in WSW 3.2 mph 3.2 mph 69 % 0.0 in
02:15 3.9 °F -1.5 °F 1009.0 in ENE 1.6 mph 1.6 mph 68 % 0.0 in
02:20 3.8 °F -1.6 °F 1009.0 in NE 1.6 mph 3.2 mph 68 % 0.0 in
02:25 3.2 °F -2.3 °F 1009.0 in ENE 3.2 mph 3.2 mph 67 % 0.0 in
02:30 3.0 °F -2.6 °F 1010.0 in Calm   3.2 mph 67 % 0.0 in
02:35 2.8 °F -2.7 °F 1010.0 in SSE 1.6 mph 3.2 mph 67 % 0.0 in
02:45 2.6 °F -2.9 °F 1010.0 in NW 1.6 mph 1.6 mph 67 % 0.0 in
02:50 2.5 °F -2.8 °F 1010.0 in Calm   1.6 mph 68 % 0.0 in
02:55 2.6 °F -2.7 °F 1010.0 in Calm     68 % 0.0 in
03:00 2.6 °F -2.7 °F 1010.0 in Calm   3.2 mph 68 % 0.0 in
03:05 2.7 °F -2.6 °F 1010.0 in Calm     68 % 0.0 in
03:10 2.8 °F -2.5 °F 1010.0 in WNW 1.6 mph 1.6 mph 68 % 0.0 in
03:20 2.8 °F -2.5 °F 1010.0 in Calm   1.6 mph 68 % 0.0 in
03:25 2.6 °F -2.7 °F 1010.0 in Calm     68 % 0.0 in
03:30 2.7 °F -2.6 °F 1010.0 in Calm     68 % 0.0 in
03:40 2.8 °F -2.5 °F 1010.0 in Calm     68 % 0.0 in
03:45 2.6 °F -2.7 °F 1010.0 in NNW 1.6 mph 1.6 mph 68 % 0.0 in
03:50 2.6 °F -2.7 °F 1010.0 in NNW 1.6 mph 3.2 mph 68 % 0.0 in
03:55 2.6 °F -2.7 °F 1010.0 in North 4.8 mph 4.8 mph 68 % 0.0 in
04:00 2.6 °F -2.7 °F 1010.0 in NE 1.6 mph 4.8 mph 68 % 0.0 in
04:05 2.5 °F -2.8 °F 1010.0 in NNE 1.6 mph 1.6 mph 68 % 0.0 in
04:10 2.5 °F -2.8 °F 1010.0 in NE 1.6 mph 1.6 mph 68 % 0.0 in
04:15 2.4 °F -2.9 °F 1010.0 in NNE 3.2 mph 3.2 mph 68 % 0.0 in
04:20 2.4 °F -2.9 °F 1010.0 in North 3.2 mph 3.2 mph 68 % 0.0 in
04:25 2.2 °F -3.1 °F 1010.0 in NNE 1.6 mph 3.2 mph 68 % 0.0 in
04:30 2.2 °F -3.1 °F 1010.0 in NNE 1.6 mph 3.2 mph 68 % 0.0 in
04:35 2.1 °F -3.2 °F 1010.0 in NNE 1.6 mph 1.6 mph 68 % 0.0 in
04:40 2.1 °F -3.2 °F 1010.0 in NNE 1.6 mph 1.6 mph 68 % 0.0 in
04:45 2.0 °F -3.3 °F 1010.0 in North 3.2 mph 3.2 mph 68 % 0.0 in
04:50 1.9 °F -3.4 °F 1010.0 in NNW 1.6 mph 3.2 mph 68 % 0.0 in
04:55 1.9 °F -3.4 °F 1010.0 in NW 1.6 mph 3.2 mph 68 % 0.0 in
05:00 1.8 °F -3.5 °F 1010.0 in NW 1.6 mph 1.6 mph 68 % 0.0 in
05:05 1.8 °F -3.5 °F 1010.0 in Calm     68 % 0.0 in
05:10 1.8 °F -3.5 °F 1010.0 in Calm   1.6 mph 68 % 0.0 in
05:15 1.5 °F -3.8 °F 1010.0 in West 3.2 mph 3.2 mph 68 % 0.0 in
05:20 1.5 °F -3.8 °F 1010.0 in West 3.2 mph 3.2 mph 68 % 0.0 in
05:25 1.3 °F -3.9 °F 1010.0 in Calm     68 % 0.0 in
05:30 1.3 °F -3.9 °F 1010.0 in Calm     68 % 0.0 in
05:35 1.3 °F -3.8 °F 1010.0 in Calm   3.2 mph 69 % 0.0 in
05:40 1.3 °F -3.8 °F 1010.0 in NW 3.2 mph 3.2 mph 69 % 0.0 in
05:45 1.4 °F -3.7 °F 1010.0 in NNW 1.6 mph   69 % 0.0 in
05:50 1.4 °F -3.7 °F 1010.0 in NNW 1.6 mph 3.2 mph 69 % 0.0 in
05:55 1.3 °F -3.8 °F 1010.0 in WNW 1.6 mph 1.6 mph 69 % 0.0 in
06:00 1.3 °F -3.8 °F 1010.0 in NW 1.6 mph 1.6 mph 69 % 0.0 in
06:05 1.3 °F -3.8 °F 1010.0 in WNW 1.6 mph   69 % 0.0 in
06:10 1.3 °F -3.8 °F 1010.0 in West 1.6 mph   69 % 0.0 in
06:35 1.2 °F -4.1 °F 1009.0 in Calm   1.6 mph 68 % 0.0 in
06:40 1.2 °F -4.1 °F 1009.0 in NNW 1.6 mph 1.6 mph 68 % 0.0 in
06:45 1.1 °F -4.2 °F 1010.0 in West 1.6 mph 1.6 mph 68 % 0.0 in
06:50 1.0 °F -4.2 °F 1010.0 in Calm   1.6 mph 68 % 0.0 in
06:55 1.1 °F -4.2 °F 1010.0 in Calm   1.6 mph 68 % 0.0 in
07:00 1.0 °F -4.2 °F 1010.0 in Calm     68 % 0.0 in
07:05 1.0 °F -4.2 °F 1010.0 in NW 1.6 mph 1.6 mph 68 % 0.0 in
07:10 0.8 °F -4.4 °F 1010.0 in West 1.6 mph 3.2 mph 68 % 0.0 in
07:15 0.8 °F -4.4 °F 1010.0 in West 1.6 mph 3.2 mph 68 % 0.0 in
07:20 0.7 °F -4.6 °F 1010.0 in Calm     68 % 0.0 in
07:40 0.8 °F -4.4 °F 1010.7 in Calm     68 % 0.0 in
07:45 0.8 °F -4.4 °F 1010.7 in Calm     68 % 0.0 in
07:50 0.8 °F -4.4 °F 1010.7 in Calm     68 % 0.0 in
07:55 0.8 °F -4.6 °F 1010.7 in Calm   3.2 mph 67 % 0.0 in
08:00 0.8 °F -4.6 °F 1010.7 in Calm     67 % 0.0 in
08:05 0.7 °F -4.7 °F 1010.7 in WSW 1.6 mph 3.2 mph 67 % 0.0 in
08:10 0.7 °F -4.7 °F 1010.7 in Calm   1.6 mph 67 % 0.0 in
08:15 0.6 °F -4.8 °F 1010.7 in NW 1.6 mph 1.6 mph 67 % 0.0 in
08:20 0.7 °F -4.7 °F 1011.7 in NW 1.6 mph 3.2 mph 67 % 0.0 in
08:30 1.2 °F -4.3 °F 1011.7 in NNW 1.6 mph   67 % 0.0 in
08:35 1.5 °F -3.9 °F 1011.7 in Calm   1.6 mph 67 % 0.0 in
08:40 1.6 °F -3.9 °F 1011.7 in Calm     67 % 0.0 in
08:45 1.4 °F -4.3 °F 1011.7 in West 1.6 mph 1.6 mph 66 % 0.0 in
09:00 2.4 °F -3.3 °F 1011.7 in NNW 1.6 mph 4.8 mph 66 % 0.0 in
09:05 3.1 °F -2.8 °F 1010.7 in NNW 1.6 mph 1.6 mph 65 % 0.0 in
09:15 3.3 °F -2.9 °F 1011.7 in NNE 3.2 mph 3.2 mph 64 % 0.0 in
09:20 3.2 °F -2.9 °F 1011.7 in NNE 3.2 mph 3.2 mph 64 % 0.0 in
09:30 3.5 °F -2.9 °F 1011.7 in North 1.6 mph 3.2 mph 63 % 0.0 in
09:40 4.4 °F -2.1 °F 1011.7 in Calm   1.6 mph 63 % 0.0 in
09:45 4.5 °F -2.2 °F 1011.7 in ESE 1.6 mph 3.2 mph 62 % 0.0 in
09:50 4.5 °F -2.2 °F 1011.7 in SSE 1.6 mph 3.2 mph 62 % 0.0 in
09:55 4.4 °F -2.5 °F 1011.7 in Calm     61 % 0.0 in
10:00 4.4 °F -2.5 °F 1011.7 in Calm   6.4 mph 61 % 0.0 in
10:05 4.9 °F -2.4 °F 1011.7 in NE 3.2 mph 3.2 mph 59 % 0.0 in
10:10 5.2 °F -2.2 °F 1011.7 in East 1.6 mph 3.2 mph 59 % 0.0 in
10:15 5.3 °F -2.1 °F 1011.7 in East 1.6 mph 3.2 mph 59 % 0.0 in
10:20 5.5 °F -2.1 °F 1011.7 in East 1.6 mph 3.2 mph 58 % 0.0 in
10:41 5.8 °F -2.3 °F 1012.8 in WSW 2.3 mph 2.3 mph 56 % 0.0 in
10:46 6.3 °F -1.8 °F 1013.8 in ESE 3.9 mph 3.9 mph 56 % 0.0 in
10:51 6.4 °F -1.8 °F 1013.8 in North 3.7 mph 3.7 mph 56 % 0.0 in
10:56 6.3 °F -1.8 °F 1013.8 in East 3.7 mph 3.7 mph 56 % 0.0 in
11:01 6.7 °F -1.7 °F 1013.8 in East 3.7 mph 3.7 mph 55 % 0.0 in
11:06 6.8 °F -1.6 °F 1013.8 in ENE 5.6 mph 5.6 mph 55 % 0.0 in
11:11 6.5 °F -2.2 °F 1013.8 in NE 7.4 mph 7.4 mph 54 % 0.0 in
11:16 6.5 °F -1.9 °F 1013.8 in ENE 5.6 mph 5.6 mph 55 % 0.0 in
11:21 6.8 °F -1.9 °F 1013.8 in East 5.6 mph 5.6 mph 54 % 0.0 in
11:26 7.0 °F -1.7 °F 1013.8 in ESE 5.6 mph 5.6 mph 54 % 0.0 in
11:31 7.3 °F -1.7 °F 1013.8 in SSE 6.1 mph 6.1 mph 53 % 0.0 in
11:36 7.2 °F -1.8 °F 1013.8 in ESE 3.7 mph 3.7 mph 53 % 0.0 in
11:41 7.7 °F -1.3 °F 1013.8 in South 3.7 mph 3.7 mph 53 % 0.0 in
11:46 7.6 °F -1.7 °F 1012.8 in ESE 6.4 mph 6.4 mph 52 % 0.0 in
11:51 7.7 °F -1.8 °F 1012.8 in NE 5.6 mph 5.6 mph 51 % 0.0 in
11:56 7.9 °F -1.6 °F 1012.8 in ENE 5.6 mph 5.6 mph 51 % 0.0 in
12:01 8.1 °F -1.7 °F 1011.7 in ESE 5.6 mph 5.6 mph 50 % 0.0 in
12:06 8.0 °F -2.1 °F 1011.7 in ESE 7.4 mph 7.4 mph 49 % 0.0 in
12:11 8.4 °F -1.4 °F 1011.7 in SSE 3.2 mph   50 % 0.0 in
12:16 8.6 °F -1.5 °F 1011.7 in SSE 3.7 mph 3.7 mph 49 % 0.0 in
12:21 8.7 °F -1.4 °F 1011.7 in ESE 3.9 mph 3.9 mph 49 % 0.0 in
12:26 8.8 °F -1.3 °F 1011.7 in ENE 9.3 mph 9.3 mph 49 % 0.0 in
12:31 9.1 °F -1.3 °F 1011.7 in SSE 3.7 mph 3.7 mph 48 % 0.0 in
12:36 9.2 °F -1.3 °F 1011.7 in ESE 5.6 mph 5.6 mph 48 % 0.0 in
12:41 9.2 °F -1.3 °F 1011.7 in ENE 7.4 mph 7.4 mph 48 % 0.0 in
12:46 9.7 °F -0.8 °F 1011.7 in NNE 4.2 mph 4.2 mph 48 % 0.0 in
12:51 9.8 °F -1.3 °F 1011.7 in ESE 5.6 mph 5.6 mph 46 % 0.0 in
13:01 9.8 °F -1.6 °F 1011.7 in WSW 7.4 mph 7.4 mph 45 % 0.0 in
13:06 10.3 °F -0.6 °F 1011.7 in ENE 2.3 mph 2.3 mph 47 % 0.0 in
13:11 10.7 °F 0.1 °F 1011.7 in NNW 9.3 mph 9.3 mph 48 % 0.0 in
13:21 10.7 °F -0.8 °F 1011.7 in South 5.6 mph 5.6 mph 45 % 0.0 in
13:26 11.0 °F -1.1 °F 1011.7 in NNW 5.6 mph 5.6 mph 43 % 0.0 in
13:31 11.1 °F -0.7 °F 1012.8 in West 3.7 mph 3.7 mph 44 % 0.0 in
13:36 11.2 °F -0.9 °F 1012.8 in WSW 6.9 mph 6.9 mph 43 % 0.0 in
13:41 11.3 °F -0.6 °F 1012.8 in SW 7.4 mph 7.4 mph 44 % 0.0 in
13:46 11.4 °F -0.8 °F 1011.7 in SW 3.7 mph 3.7 mph 43 % 0.0 in
13:56 11.6 °F -0.6 °F 1011.7 in WSW 5.6 mph 5.6 mph 43 % 0.0 in
14:06 11.4 °F -1.1 °F 1011.7 in WSW 5.6 mph 5.6 mph 42 % 0.0 in
14:11 11.5 °F -1.3 °F 1011.7 in WSW 9.3 mph 9.3 mph 41 % 0.0 in
14:16 11.5 °F -1.3 °F 1011.7 in NW 7.4 mph 7.4 mph 41 % 0.0 in
14:21 11.5 °F -1.3 °F 1011.7 in WNW 11.9 mph 11.9 mph 41 % 0.0 in
14:26 11.5 °F -2.0 °F 1011.7 in NW 9.3 mph 9.3 mph 39 % 0.0 in
14:31 11.5 °F -2.0 °F 1011.7 in WSW 9.0 mph 9.0 mph 39 % 0.0 in
14:36 11.5 °F -2.3 °F 1011.7 in WSW 14.8 mph 14.8 mph 38 % 0.0 in
14:41 11.6 °F -2.3 °F 1011.7 in WSW 12.2 mph 12.2 mph 38 % 0.0 in
15:01 12.0 °F -2.6 °F 1011.7 in SW 7.4 mph 7.4 mph 36 % 0.0 in
15:06 11.9 °F -2.7 °F 1011.7 in SW 14.8 mph 14.8 mph 36 % 0.0 in
15:21 11.7 °F -3.7 °F 1011.7 in West 7.4 mph 7.4 mph 34 % 0.0 in
15:26 11.8 °F -3.6 °F 1011.7 in West 5.8 mph 5.8 mph 34 % 0.0 in
15:31 11.7 °F -3.7 °F 1011.7 in WSW 5.6 mph 5.6 mph 34 % 0.0 in
15:36 11.8 °F -3.6 °F 1011.7 in West 3.9 mph 4.2 mph 34 % 0.0 in
15:41 11.7 °F -3.7 °F 1011.7 in West 7.4 mph 7.4 mph 34 % 0.0 in
15:46 11.7 °F -3.7 °F 1011.7 in West 5.6 mph 5.6 mph 34 % 0.0 in
15:51 11.6 °F -3.8 °F 1011.7 in West 4.2 mph 4.2 mph 34 % 0.0 in
16:01 11.4 °F -3.9 °F 1011.7 in West 9.3 mph 9.3 mph 34 % 0.0 in
16:06 11.2 °F -4.1 °F 1011.7 in WSW 14.8 mph 14.8 mph 34 % 0.0 in
16:11 10.9 °F -4.8 °F 1011.7 in ENE 9.3 mph 9.3 mph 33 % 0.0 in
16:16 10.9 °F -4.8 °F 1011.7 in WSW 5.8 mph 5.8 mph 33 % 0.0 in
16:21 10.9 °F -4.8 °F 1011.7 in West 9.3 mph 9.3 mph 33 % 0.0 in
16:26 10.8 °F -4.8 °F 1011.7 in WSW 5.6 mph 5.6 mph 33 % 0.0 in
16:36 10.2 °F -5.8 °F 1011.7 in West 9.3 mph 9.5 mph 32 % 0.0 in
16:41 10.2 °F -5.8 °F 1011.7 in SW 7.4 mph 7.4 mph 32 % 0.0 in
16:46 10.0 °F -5.9 °F 1012.8 in West 5.6 mph 5.6 mph 32 % 0.0 in
16:51 9.9 °F -5.7 °F 1012.8 in West 5.6 mph 5.6 mph 33 % 0.0 in
16:56 9.7 °F -5.8 °F 1012.8 in West 5.6 mph 5.6 mph 33 % 0.0 in
17:11 9.0 °F -6.4 °F 1011.7 in WSW 9.3 mph 9.3 mph 33 % 0.0 in
17:16 8.8 °F -6.6 °F 1012.8 in West 3.7 mph 3.7 mph 33 % 0.0 in
17:21 8.5 °F -6.9 °F 1012.8 in NW 1.9 mph   33 % 0.0 in
17:26 8.3 °F -7.1 °F 1012.8 in NW 1.9 mph 2.3 mph 33 % 0.0 in
17:31 8.1 °F -7.6 °F 1011.7 in Calm     32 % 0.0 in
17:42 7.7 °F -7.6 °F 1011.7 in WNW 3.2 mph   33 % 0.0 in
17:47 7.6 °F -7.7 °F 1011.7 in WNW 1.9 mph 1.9 mph 33 % 0.0 in
17:52 7.4 °F -7.8 °F 1011.7 in WSW 1.9 mph   33 % 0.0 in
17:57 7.3 °F -7.9 °F 1011.7 in Calm     33 % 0.0 in
18:02 7.2 °F -8.1 °F 1012.8 in Calm     33 % 0.0 in
18:07 7.0 °F -8.2 °F 1012.8 in Calm     33 % 0.0 in
18:12 6.9 °F -8.3 °F 1012.8 in Calm     33 % 0.0 in
18:22 6.6 °F -8.6 °F 1012.8 in NW 1.9 mph 1.9 mph 33 % 0.0 in
18:27 6.4 °F -8.7 °F 1012.8 in Calm     33 % 0.0 in
18:32 6.3 °F -8.8 °F 1012.8 in NW 1.9 mph   33 % 0.0 in
18:37 6.3 °F -8.8 °F 1012.8 in Calm     33 % 0.0 in
18:42 6.2 °F -8.9 °F 1012.8 in Calm     33 % 0.0 in
18:47 6.1 °F -9.0 °F 1013.8 in NW 1.9 mph 2.3 mph 33 % 0.0 in
18:52 6.2 °F -8.9 °F 1013.8 in NNE 3.7 mph 3.7 mph 33 % 0.0 in
18:57 6.3 °F -8.8 °F 1013.8 in East 3.7 mph 3.9 mph 33 % 0.0 in
19:02 6.5 °F -8.7 °F 1013.8 in SW 3.7 mph 3.7 mph 33 % 0.0 in
19:07 6.3 °F -8.8 °F 1013.8 in Calm     33 % 0.0 in
19:12 6.2 °F -8.9 °F 1013.8 in SE 3.7 mph 3.7 mph 33 % 0.0 in
19:17 6.2 °F -8.9 °F 1013.8 in SSE 1.9 mph   33 % 0.0 in
19:27 5.8 °F -9.3 °F 1013.8 in West 1.9 mph   33 % 0.0 in
19:32 5.6 °F -9.4 °F 1013.8 in West 1.9 mph 2.3 mph 33 % 0.0 in
19:42 5.2 °F -9.8 °F 1013.8 in WSW 1.9 mph 1.9 mph 33 % 0.0 in
19:47 5.1 °F -9.9 °F 1014.8 in West 1.9 mph 1.9 mph 33 % 0.0 in
19:52 5.1 °F -9.9 °F 1014.8 in West 2.3 mph 2.3 mph 33 % 0.0 in
20:02 5.4 °F -9.6 °F 1013.8 in WNW 2.3 mph 2.3 mph 33 % 0.0 in
20:07 5.2 °F -9.4 °F 1013.8 in WSW 1.9 mph   34 % 0.0 in
20:12 5.0 °F -9.6 °F 1013.8 in WSW 1.9 mph 1.9 mph 34 % 0.0 in
20:17 4.6 °F -9.9 °F 1013.8 in WSW 2.6 mph 2.6 mph 34 % 0.0 in
20:22 4.6 °F -9.9 °F 1013.8 in Calm     34 % 0.0 in
20:27 4.6 °F -9.9 °F 1013.8 in Calm     34 % 0.0 in
20:32 5.1 °F -9.5 °F 1013.8 in West 3.7 mph 3.7 mph 34 % 0.0 in
20:37 5.1 °F -9.5 °F 1013.8 in Calm     34 % 0.0 in
20:48 5.2 °F -9.4 °F 1013.8 in ENE 5.0 mph   34 % 0.0 in
20:53 5.2 °F -9.1 °F 1013.8 in NE 3.7 mph   35 % 0.0 in
20:58 5.3 °F -8.9 °F 1013.8 in ENE 5.6 mph 5.6 mph 35 % 0.0 in
21:03 5.3 °F -8.6 °F 1013.8 in SSE 5.6 mph 5.6 mph 36 % 0.0 in
21:13 5.9 °F -8.1 °F 1013.8 in NNE 7.4 mph 7.4 mph 36 % 0.0 in
21:18 5.6 °F -8.3 °F 1013.8 in NNW 3.9 mph 3.9 mph 36 % 0.0 in
21:23 5.2 °F -8.7 °F 1013.8 in East 4.7 mph 4.7 mph 36 % 0.0 in
21:28 5.0 °F -8.9 °F 1013.8 in NNE 3.7 mph 3.7 mph 36 % 0.0 in
21:33 4.6 °F -9.2 °F 1012.8 in ESE 5.6 mph 5.6 mph 36 % 0.0 in
21:39 4.5 °F -9.3 °F 1012.8 in ESE 3.7 mph 3.7 mph 36 % 0.0 in
21:44 4.3 °F -9.5 °F 1012.8 in SE 1.9 mph   36 % 0.0 in
21:54 3.8 °F -9.9 °F 1012.8 in NNE 5.6 mph 5.6 mph 36 % 0.0 in
21:59 3.7 °F -10.0 °F 1012.8 in ENE 5.0 mph 5.0 mph 36 % 0.0 in
22:04 3.8 °F -9.6 °F 1013.8 in NNE 5.6 mph 5.6 mph 37 % 0.0 in
22:09 3.8 °F -9.6 °F 1013.8 in ENE 1.9 mph   37 % 0.0 in
22:14 3.9 °F -9.5 °F 1013.8 in ENE 3.7 mph 3.7 mph 37 % 0.0 in
22:19 3.8 °F -9.6 °F 1013.8 in ESE 3.2 mph 3.2 mph 37 % 0.0 in
22:24 3.9 °F -9.2 °F 1013.8 in East 3.7 mph 3.7 mph 38 % 0.0 in
22:39 3.4 °F -9.6 °F 1014.8 in NE 5.6 mph 5.6 mph 38 % 0.0 in
22:49 3.3 °F -9.4 °F 1013.8 in WSW 1.9 mph 1.9 mph 39 % 0.0 in
22:59 3.6 °F -9.1 °F 1013.8 in West 3.7 mph 3.7 mph 39 % 0.0 in
23:04 3.8 °F -8.6 °F 1013.8 in WNW 5.0 mph 5.0 mph 40 % 0.0 in
23:09 4.1 °F -8.0 °F 1013.8 in WSW 5.6 mph 5.6 mph 41 % 0.0 in
23:19 4.3 °F -7.5 °F 1013.8 in WSW 2.6 mph 2.6 mph 42 % 0.0 in
23:24 4.3 °F -7.5 °F 1013.8 in WNW 3.7 mph 3.7 mph 42 % 0.0 in
23:34 4.3 °F -7.2 °F 1013.8 in NW 3.7 mph 3.7 mph 43 % 0.0 in
23:39 4.3 °F -6.9 °F 1013.8 in ENE 3.7 mph 3.7 mph 44 % 0.0 in
23:49 4.4 °F -6.8 °F 1012.8 in WSW 7.4 mph 7.4 mph 44 % 0.0 in
Meteo Sesrovires
Elogis d' Weather Underground - 2 mb

Guio original per  Jim McMurry - jmcmurry@mwt.net Adaptat per a la plantilla per  Wim van der Kuil - Leuven-Template.eu

Trobareu la nostra informacio del temps tambe a:

Weather Underground

AWEKAS